createdAt,value
2022-12-31T00:00:19.474Z,99.99
2022-12-31T00:01:19.437Z,99.99
2022-12-31T00:02:19.479Z,99.99
2022-12-31T00:03:19.517Z,99.99
2022-12-31T00:04:19.382Z,99.99
2022-12-31T00:05:19.332Z,99.99
2022-12-31T00:06:19.379Z,99.99
2022-12-31T00:07:19.330Z,99.99
2022-12-31T00:08:19.397Z,99.99
2022-12-31T00:09:19.328Z,99.99
2022-12-31T00:10:19.317Z,99.99
2022-12-31T00:11:19.272Z,99.99
2022-12-31T00:12:19.296Z,99.99
2022-12-31T00:13:19.342Z,99.99
2022-12-31T00:14:19.220Z,99.99
2022-12-31T00:15:19.211Z,99.99
2022-12-31T00:16:19.290Z,99.99
2022-12-31T00:17:19.197Z,99.99
2022-12-31T00:18:19.223Z,99.99
2022-12-31T00:19:19.220Z,99.99
2022-12-31T00:20:19.193Z,99.99
2022-12-31T00:21:19.182Z,99.99
2022-12-31T00:22:19.146Z,99.99
2022-12-31T00:23:19.213Z,99.99
2022-12-31T00:24:19.108Z,99.99
2022-12-31T00:25:19.122Z,99.99
2022-12-31T00:26:19.154Z,99.99
2022-12-31T00:27:19.111Z,99.99
2022-12-31T00:28:19.102Z,99.99
2022-12-31T00:29:19.086Z,99.99
2022-12-31T00:30:19.086Z,99.99
2022-12-31T00:31:19.187Z,99.99
2022-12-31T00:32:19.031Z,99.99
2022-12-31T00:33:19.045Z,99.99
2022-12-31T00:34:19.031Z,99.99
2022-12-31T00:35:18.994Z,99.99
2022-12-31T00:36:19.034Z,99.99
2022-12-31T00:37:18.979Z,99.99
2022-12-31T00:38:18.986Z,99.99
2022-12-31T00:39:18.956Z,99.99
2022-12-31T00:40:18.963Z,99.99
2022-12-31T00:41:18.933Z,99.99
2022-12-31T00:42:19.036Z,99.99
2022-12-31T00:43:18.922Z,99.99
2022-12-31T00:44:19.045Z,99.99
2022-12-31T00:45:18.897Z,99.99
2022-12-31T00:46:18.995Z,99.99
2022-12-31T00:47:18.951Z,99.99
2022-12-31T00:48:18.885Z,99.99
2022-12-31T00:49:18.885Z,99.99
2022-12-31T00:50:18.906Z,99.99
2022-12-31T00:51:18.954Z,99.99
2022-12-31T00:52:18.877Z,99.99
2022-12-31T00:53:18.830Z,99.99
2022-12-31T00:54:18.828Z,99.99
2022-12-31T00:55:18.794Z,99.99
2022-12-31T00:56:18.792Z,99.99
2022-12-31T00:57:18.804Z,99.99
2022-12-31T00:58:18.775Z,99.99
2022-12-31T00:59:18.820Z,99.99
2022-12-31T01:00:18.752Z,99.99
2022-12-31T01:01:18.965Z,99.99
2022-12-31T01:02:19.237Z,99.99
2022-12-31T01:03:18.863Z,99.99
2022-12-31T01:04:20.061Z,99.99
2022-12-31T01:05:23.802Z,99.99
2022-12-31T01:06:25.720Z,99.99
2022-12-31T01:07:18.794Z,99.99
2022-12-31T01:08:18.689Z,99.99
2022-12-31T01:09:18.737Z,99.99
2022-12-31T01:10:18.642Z,99.99
2022-12-31T01:11:18.762Z,99.99
2022-12-31T01:12:18.598Z,99.99
2022-12-31T01:13:18.585Z,99.99
2022-12-31T01:14:18.620Z,99.99
2022-12-31T01:15:18.616Z,99.99
2022-12-31T01:16:18.570Z,99.99
2022-12-31T01:17:18.548Z,99.99
2022-12-31T01:18:18.565Z,99.99
2022-12-31T01:19:18.721Z,99.99
2022-12-31T01:20:18.508Z,99.99
2022-12-31T01:21:18.562Z,99.99
2022-12-31T01:22:18.543Z,99.99
2022-12-31T01:23:18.505Z,99.99
2022-12-31T01:24:18.493Z,99.99
2022-12-31T01:25:18.481Z,99.99
2022-12-31T01:26:18.497Z,99.99
2022-12-31T01:27:18.473Z,99.99
2022-12-31T01:28:18.448Z,99.99
2022-12-31T01:29:18.443Z,99.99
2022-12-31T01:30:18.444Z,99.99
2022-12-31T01:31:18.453Z,99.99
2022-12-31T01:32:18.416Z,99.99
2022-12-31T01:33:18.423Z,99.99
2022-12-31T01:34:18.379Z,99.99
2022-12-31T01:35:18.366Z,99.99
2022-12-31T01:36:23.528Z,99.99
2022-12-31T01:37:18.406Z,99.99
2022-12-31T01:38:18.377Z,99.99
2022-12-31T01:39:18.342Z,99.99
2022-12-31T01:40:18.312Z,99.99
2022-12-31T01:41:18.302Z,99.99
2022-12-31T01:42:18.301Z,99.99
2022-12-31T01:43:18.264Z,99.99
2022-12-31T01:44:18.305Z,99.99
2022-12-31T01:45:18.311Z,99.99
2022-12-31T01:46:18.308Z,99.99
2022-12-31T01:47:18.219Z,99.99
2022-12-31T01:48:18.215Z,99.99
2022-12-31T01:49:18.321Z,99.99
2022-12-31T01:50:18.242Z,99.99
2022-12-31T01:51:18.238Z,99.99
2022-12-31T01:52:18.207Z,99.99
2022-12-31T01:53:18.239Z,99.99
2022-12-31T01:54:18.197Z,99.99
2022-12-31T01:55:18.212Z,99.99
2022-12-31T01:56:18.160Z,99.99
2022-12-31T01:57:18.140Z,99.99
2022-12-31T01:58:18.237Z,99.99
2022-12-31T01:59:18.165Z,99.99
2022-12-31T02:00:18.219Z,99.99
2022-12-31T02:01:18.167Z,99.99
2022-12-31T02:02:18.311Z,99.99
2022-12-31T02:03:18.083Z,99.99
2022-12-31T02:04:18.105Z,99.99
2022-12-31T02:05:18.051Z,99.99
2022-12-31T02:06:18.044Z,99.99
2022-12-31T02:07:18.050Z,99.99
2022-12-31T02:08:18.137Z,99.99
2022-12-31T02:09:18.085Z,99.99
2022-12-31T02:10:18.007Z,99.99
2022-12-31T02:11:18.002Z,99.99
2022-12-31T02:12:17.976Z,99.99
2022-12-31T02:13:17.993Z,99.99
2022-12-31T02:14:17.971Z,99.99
2022-12-31T02:15:17.970Z,99.99
2022-12-31T02:16:18.031Z,99.99
2022-12-31T02:17:17.976Z,99.99
2022-12-31T02:18:17.925Z,99.99
2022-12-31T02:19:17.889Z,99.99
2022-12-31T02:20:17.923Z,99.99
2022-12-31T02:21:17.888Z,99.99
2022-12-31T02:22:17.852Z,99.99
2022-12-31T02:23:17.864Z,99.99
2022-12-31T02:24:18.005Z,99.99
2022-12-31T02:25:17.865Z,99.99
2022-12-31T02:26:17.853Z,99.99
2022-12-31T02:27:17.803Z,99.99
2022-12-31T02:28:17.815Z,99.99
2022-12-31T02:29:17.809Z,99.99
2022-12-31T02:30:17.788Z,99.99
2022-12-31T02:31:17.861Z,99.99
2022-12-31T02:32:17.732Z,99.99
2022-12-31T02:33:17.952Z,99.99
2022-12-31T02:34:17.849Z,99.99
2022-12-31T02:35:17.788Z,99.99
2022-12-31T02:36:17.765Z,99.99
2022-12-31T02:37:17.777Z,99.99
2022-12-31T02:38:17.758Z,99.99
2022-12-31T02:39:17.769Z,99.99
2022-12-31T02:40:17.680Z,99.99
2022-12-31T02:41:17.643Z,99.99
2022-12-31T02:42:17.734Z,99.99
2022-12-31T02:43:17.694Z,99.99
2022-12-31T02:44:17.629Z,99.99
2022-12-31T02:45:17.639Z,99.99
2022-12-31T02:46:17.695Z,99.99
2022-12-31T02:47:17.674Z,99.99
2022-12-31T02:48:17.615Z,99.99
2022-12-31T02:49:17.595Z,99.99
2022-12-31T02:50:17.593Z,99.99
2022-12-31T02:51:17.786Z,99.99
2022-12-31T02:52:17.609Z,99.99
2022-12-31T02:53:17.597Z,99.99
2022-12-31T02:54:17.548Z,99.99
2022-12-31T02:55:17.583Z,99.99
2022-12-31T02:56:17.509Z,99.99
2022-12-31T02:57:17.497Z,99.99
2022-12-31T02:58:17.459Z,99.99
2022-12-31T02:59:17.479Z,99.99
2022-12-31T03:00:17.543Z,99.99
2022-12-31T03:01:17.614Z,99.99
2022-12-31T03:02:17.645Z,99.99
2022-12-31T03:03:17.442Z,99.99
2022-12-31T03:04:17.404Z,99.99
2022-12-31T03:05:17.427Z,99.99
2022-12-31T03:06:17.407Z,99.99
2022-12-31T03:07:17.387Z,99.99
2022-12-31T03:08:17.381Z,99.99
2022-12-31T03:09:17.391Z,99.99
2022-12-31T03:10:17.333Z,99.99
2022-12-31T03:11:17.390Z,99.99
2022-12-31T03:12:17.347Z,99.99
2022-12-31T03:13:17.363Z,99.99
2022-12-31T03:14:17.346Z,99.99
2022-12-31T03:15:17.390Z,99.99
2022-12-31T03:16:17.318Z,99.99
2022-12-31T03:17:17.279Z,99.99
2022-12-31T03:18:17.273Z,99.99
2022-12-31T03:19:17.292Z,99.99
2022-12-31T03:20:17.229Z,99.99
2022-12-31T03:21:17.320Z,99.99
2022-12-31T03:22:17.195Z,99.99
2022-12-31T03:23:17.236Z,99.99
2022-12-31T03:24:17.228Z,99.99
2022-12-31T03:25:17.236Z,99.99
2022-12-31T03:26:17.203Z,99.99
2022-12-31T03:27:17.178Z,99.99
2022-12-31T03:28:17.164Z,99.99
2022-12-31T03:29:17.201Z,99.99
2022-12-31T03:30:17.154Z,99.99
2022-12-31T03:31:17.181Z,99.99
2022-12-31T03:32:17.144Z,99.99
2022-12-31T03:33:17.111Z,99.99
2022-12-31T03:34:17.084Z,99.99
2022-12-31T03:35:17.130Z,99.99
2022-12-31T03:36:17.092Z,99.99
2022-12-31T03:37:17.070Z,99.99
2022-12-31T03:38:17.041Z,99.99
2022-12-31T03:39:17.081Z,99.99
2022-12-31T03:40:17.036Z,99.99
2022-12-31T03:41:17.017Z,99.99
2022-12-31T03:42:17.059Z,99.99
2022-12-31T03:43:17.005Z,99.99
2022-12-31T03:44:16.979Z,99.99
2022-12-31T03:45:17.065Z,99.99
2022-12-31T03:46:17.005Z,99.99
2022-12-31T03:47:16.973Z,99.99
2022-12-31T03:48:16.967Z,99.99
2022-12-31T03:49:16.936Z,99.99
2022-12-31T03:50:16.915Z,99.99
2022-12-31T03:51:16.917Z,99.99
2022-12-31T03:52:16.896Z,99.99
2022-12-31T03:53:16.892Z,99.99
2022-12-31T03:54:16.918Z,99.99
2022-12-31T03:55:16.907Z,99.99
2022-12-31T03:56:16.857Z,99.99
2022-12-31T03:57:16.846Z,99.99
2022-12-31T03:58:16.906Z,99.99
2022-12-31T03:59:16.882Z,99.99
2022-12-31T04:00:16.814Z,99.99
2022-12-31T04:01:16.934Z,99.99
2022-12-31T04:02:16.878Z,99.99
2022-12-31T04:03:16.862Z,99.99
2022-12-31T04:04:16.826Z,99.99
2022-12-31T04:05:16.804Z,99.99
2022-12-31T04:06:16.774Z,99.99
2022-12-31T04:07:16.743Z,99.99
2022-12-31T04:08:16.741Z,99.99
2022-12-31T04:09:16.733Z,99.99
2022-12-31T04:10:16.727Z,99.99
2022-12-31T04:11:20.845Z,99.99
2022-12-31T04:12:16.723Z,99.99
2022-12-31T04:13:16.671Z,99.99
2022-12-31T04:14:16.679Z,99.99
2022-12-31T04:15:16.708Z,99.99
2022-12-31T04:16:16.680Z,99.99
2022-12-31T04:17:16.679Z,99.99
2022-12-31T04:18:16.651Z,99.99
2022-12-31T04:19:16.608Z,99.99
2022-12-31T04:20:16.698Z,99.99
2022-12-31T04:21:16.591Z,99.99
2022-12-31T04:22:16.574Z,99.99
2022-12-31T04:23:16.599Z,99.99
2022-12-31T04:24:16.579Z,99.99
2022-12-31T04:25:16.574Z,99.99
2022-12-31T04:26:16.542Z,99.99
2022-12-31T04:27:16.572Z,99.99
2022-12-31T04:28:16.507Z,99.99
2022-12-31T04:29:16.494Z,99.99
2022-12-31T04:30:16.557Z,99.99
2022-12-31T04:31:16.490Z,99.99
2022-12-31T04:32:16.456Z,99.99
2022-12-31T04:33:16.556Z,99.99
2022-12-31T04:34:16.485Z,99.99
2022-12-31T04:35:16.464Z,99.99
2022-12-31T04:36:16.441Z,99.99
2022-12-31T04:37:16.455Z,99.99
2022-12-31T04:38:16.408Z,99.99
2022-12-31T04:39:16.409Z,99.99
2022-12-31T04:40:16.389Z,99.99
2022-12-31T04:41:16.440Z,99.99
2022-12-31T04:42:16.372Z,99.99
2022-12-31T04:43:16.429Z,99.99
2022-12-31T04:44:16.376Z,99.99
2022-12-31T04:45:16.395Z,99.99
2022-12-31T04:46:16.398Z,99.99
2022-12-31T04:47:23.290Z,99.99
2022-12-31T04:48:16.335Z,99.99
2022-12-31T04:49:16.313Z,99.99
2022-12-31T04:50:16.317Z,99.99
2022-12-31T04:51:16.277Z,99.99
2022-12-31T04:52:16.304Z,99.99
2022-12-31T04:53:16.297Z,99.99
2022-12-31T04:54:16.255Z,99.99
2022-12-31T04:55:16.221Z,99.99
2022-12-31T04:56:16.243Z,99.99
2022-12-31T04:57:16.239Z,99.99
2022-12-31T04:58:16.195Z,99.99
2022-12-31T04:59:16.237Z,99.99
2022-12-31T05:00:16.327Z,99.99
2022-12-31T05:01:16.302Z,99.99
2022-12-31T05:02:16.364Z,99.99
2022-12-31T05:03:16.188Z,99.99
2022-12-31T05:04:16.174Z,99.99
2022-12-31T05:05:16.134Z,99.99
2022-12-31T05:06:16.159Z,99.99
2022-12-31T05:07:16.127Z,99.99
2022-12-31T05:08:16.102Z,99.99
2022-12-31T05:09:16.070Z,99.99
2022-12-31T05:10:16.081Z,99.99
2022-12-31T05:11:16.054Z,99.99
2022-12-31T05:12:16.052Z,99.99
2022-12-31T05:13:16.101Z,99.99
2022-12-31T05:14:16.194Z,99.99
2022-12-31T05:15:16.049Z,99.99
2022-12-31T05:16:16.131Z,99.99
2022-12-31T05:17:16.064Z,99.99
2022-12-31T05:18:16.026Z,99.99
2022-12-31T05:19:16.032Z,99.99
2022-12-31T05:20:15.957Z,99.99
2022-12-31T05:21:15.957Z,99.99
2022-12-31T05:22:15.964Z,99.99
2022-12-31T05:23:15.957Z,99.99
2022-12-31T05:24:15.974Z,99.99
2022-12-31T05:25:15.940Z,99.99
2022-12-31T05:26:15.912Z,99.99
2022-12-31T05:27:15.992Z,99.99
2022-12-31T05:28:15.914Z,99.99
2022-12-31T05:29:15.869Z,99.99
2022-12-31T05:30:15.949Z,99.99
2022-12-31T05:31:15.910Z,99.99
2022-12-31T05:32:15.846Z,99.99
2022-12-31T05:33:15.867Z,99.99
2022-12-31T05:34:15.824Z,99.99
2022-12-31T05:35:15.897Z,99.99
2022-12-31T05:36:15.828Z,99.99
2022-12-31T05:37:15.822Z,99.99
2022-12-31T05:38:15.809Z,99.99
2022-12-31T05:39:16.046Z,99.99
2022-12-31T05:40:15.850Z,99.99
2022-12-31T05:41:15.760Z,99.99
2022-12-31T05:42:15.751Z,99.99
2022-12-31T05:43:15.720Z,99.99
2022-12-31T05:44:15.716Z,99.99
2022-12-31T05:45:15.730Z,99.79
2022-12-31T05:46:15.736Z,99.64
2022-12-31T05:47:15.694Z,99.24
2022-12-31T05:48:15.652Z,99.04
2022-12-31T05:49:15.795Z,99.13
2022-12-31T05:50:15.675Z,99.04
2022-12-31T05:51:15.629Z,98.93
2022-12-31T05:52:15.700Z,98.52
2022-12-31T05:53:15.668Z,98.93
2022-12-31T05:54:15.613Z,98.83
2022-12-31T05:55:15.632Z,99.04
2022-12-31T05:56:15.604Z,98.63
2022-12-31T05:57:15.598Z,98.32
2022-12-31T05:58:15.554Z,98.22
2022-12-31T05:59:15.575Z,98.07
2022-12-31T06:00:15.557Z,97.87
2022-12-31T06:01:15.575Z,97.26
2022-12-31T06:02:15.640Z,97.77
2022-12-31T06:03:15.642Z,96.55
2022-12-31T06:04:15.504Z,96.55
2022-12-31T06:05:15.701Z,96.75
2022-12-31T06:06:15.631Z,96.55
2022-12-31T06:07:15.461Z,96.25
2022-12-31T06:08:15.453Z,96.81
2022-12-31T06:09:15.479Z,96.55
2022-12-31T06:10:15.444Z,96.55
2022-12-31T06:11:15.444Z,97.02
2022-12-31T06:12:15.491Z,97.16
2022-12-31T06:13:15.471Z,96.75
2022-12-31T06:14:15.391Z,96.55
2022-12-31T06:15:15.396Z,96.10
2022-12-31T06:16:15.432Z,96.10
2022-12-31T06:17:15.361Z,95.59
2022-12-31T06:18:15.516Z,95.90
2022-12-31T06:19:15.382Z,95.90
2022-12-31T06:20:15.351Z,95.90
2022-12-31T06:21:15.315Z,95.70
2022-12-31T06:22:15.495Z,95.90
2022-12-31T06:23:15.313Z,95.79
2022-12-31T06:24:15.327Z,95.70
2022-12-31T06:25:15.329Z,95.90
2022-12-31T06:26:15.323Z,96.00
2022-12-31T06:27:15.253Z,95.50
2022-12-31T06:28:20.107Z,95.59
2022-12-31T06:29:15.321Z,95.59
2022-12-31T06:30:15.256Z,95.50
2022-12-31T06:31:15.258Z,95.29
2022-12-31T06:32:15.314Z,95.19
2022-12-31T06:33:15.221Z,94.84
2022-12-31T06:34:15.179Z,94.94
2022-12-31T06:35:15.186Z,94.74
2022-12-31T06:36:15.144Z,94.74
2022-12-31T06:37:15.245Z,95.14
2022-12-31T06:38:15.135Z,95.14
2022-12-31T06:39:15.107Z,95.35
2022-12-31T06:40:15.348Z,95.35
2022-12-31T06:41:15.142Z,94.84
2022-12-31T06:42:15.151Z,94.54
2022-12-31T06:43:15.160Z,94.94
2022-12-31T06:44:15.083Z,94.94
2022-12-31T06:45:15.096Z,94.74
2022-12-31T06:46:15.077Z,94.64
2022-12-31T06:47:15.065Z,94.64
2022-12-31T06:48:15.077Z,94.03
2022-12-31T06:49:15.035Z,94.13
2022-12-31T06:50:15.037Z,94.03
2022-12-31T06:51:17.196Z,94.03
2022-12-31T06:52:15.231Z,94.34
2022-12-31T06:53:14.948Z,94.23
2022-12-31T06:54:14.973Z,94.34
2022-12-31T06:55:14.988Z,94.34
2022-12-31T06:56:14.953Z,94.43
2022-12-31T06:57:14.915Z,94.23
2022-12-31T06:58:14.959Z,94.03
2022-12-31T06:59:14.886Z,94.13
2022-12-31T07:00:14.998Z,94.23
2022-12-31T07:01:14.969Z,94.74
2022-12-31T07:02:14.928Z,94.54
2022-12-31T07:03:14.909Z,94.43
2022-12-31T07:04:14.864Z,94.54
2022-12-31T07:05:14.909Z,94.13
2022-12-31T07:06:14.878Z,93.42
2022-12-31T07:07:14.864Z,93.12
2022-12-31T07:08:14.818Z,93.27
2022-12-31T07:09:14.845Z,93.68
2022-12-31T07:10:14.844Z,93.32
2022-12-31T07:11:14.766Z,93.32
2022-12-31T07:12:14.811Z,92.67
2022-12-31T07:13:14.838Z,92.67
2022-12-31T07:14:14.842Z,92.06
2022-12-31T07:15:14.745Z,91.86
2022-12-31T07:16:14.834Z,91.96
2022-12-31T07:17:14.824Z,91.75
2022-12-31T07:18:14.681Z,91.66
2022-12-31T07:19:14.659Z,91.66
2022-12-31T07:20:14.663Z,91.46
2022-12-31T07:21:14.689Z,91.35
2022-12-31T07:22:14.620Z,91.86
2022-12-31T07:23:14.622Z,91.66
2022-12-31T07:24:14.614Z,91.75
2022-12-31T07:25:14.569Z,91.35
2022-12-31T07:26:14.597Z,91.55
2022-12-31T07:27:14.625Z,91.55
2022-12-31T07:28:14.575Z,91.25
2022-12-31T07:29:14.527Z,91.00
2022-12-31T07:30:14.543Z,90.80
2022-12-31T07:31:14.620Z,90.50
2022-12-31T07:32:14.540Z,90.70
2022-12-31T07:33:14.558Z,90.80
2022-12-31T07:34:14.582Z,90.09
2022-12-31T07:35:14.450Z,89.79
2022-12-31T07:36:14.539Z,89.54
2022-12-31T07:37:14.443Z,89.85
2022-12-31T07:38:14.509Z,89.28
2022-12-31T07:39:14.410Z,89.99
2022-12-31T07:40:14.447Z,90.20
2022-12-31T07:41:14.424Z,89.99
2022-12-31T07:42:14.431Z,89.59
2022-12-31T07:43:14.392Z,89.79
2022-12-31T07:44:14.422Z,90.30
2022-12-31T07:45:14.377Z,90.09
2022-12-31T07:46:14.647Z,89.79
2022-12-31T07:47:14.353Z,89.54
2022-12-31T07:48:14.394Z,90.05
2022-12-31T07:49:14.310Z,89.79
2022-12-31T07:50:14.363Z,89.99
2022-12-31T07:51:14.425Z,89.79
2022-12-31T07:52:14.298Z,89.99
2022-12-31T07:53:14.304Z,89.89
2022-12-31T07:54:14.585Z,89.79
2022-12-31T07:55:14.310Z,89.54
2022-12-31T07:56:14.290Z,89.24
2022-12-31T07:57:14.319Z,89.65
2022-12-31T07:58:14.243Z,88.94
2022-12-31T07:59:15.740Z,88.94
2022-12-31T08:00:14.193Z,89.14
2022-12-31T08:01:14.418Z,89.14
2022-12-31T08:02:14.520Z,89.14
2022-12-31T08:03:14.199Z,89.34
2022-12-31T08:04:14.165Z,89.24
2022-12-31T08:05:14.146Z,89.04
2022-12-31T08:06:14.177Z,89.04
2022-12-31T08:07:14.183Z,88.84
2022-12-31T08:08:14.235Z,88.64
2022-12-31T08:09:14.120Z,88.53
2022-12-31T08:10:17.725Z,88.53
2022-12-31T08:11:14.091Z,88.74
2022-12-31T08:12:14.101Z,88.94
2022-12-31T08:13:14.060Z,88.74
2022-12-31T08:14:14.094Z,88.74
2022-12-31T08:15:14.035Z,88.74
2022-12-31T08:16:14.152Z,88.94
2022-12-31T08:17:14.013Z,89.04
2022-12-31T08:18:14.066Z,89.34
2022-12-31T08:19:14.017Z,88.74
2022-12-31T08:20:13.996Z,88.84
2022-12-31T08:21:14.004Z,89.04
2022-12-31T08:22:13.978Z,88.94
2022-12-31T08:23:14.001Z,88.74
2022-12-31T08:24:14.029Z,88.94
2022-12-31T08:25:13.917Z,88.94
2022-12-31T08:26:13.951Z,88.74
2022-12-31T08:27:13.937Z,88.74
2022-12-31T08:28:13.937Z,88.74
2022-12-31T08:29:13.904Z,88.53
2022-12-31T08:30:13.946Z,88.74
2022-12-31T08:31:13.987Z,88.74
2022-12-31T08:32:13.936Z,88.23
2022-12-31T08:33:13.897Z,88.13
2022-12-31T08:34:13.865Z,87.99
2022-12-31T08:35:13.852Z,88.09
2022-12-31T08:36:13.884Z,88.09
2022-12-31T08:37:13.844Z,87.99
2022-12-31T08:38:13.817Z,88.29
2022-12-31T08:39:13.918Z,87.99
2022-12-31T08:40:13.814Z,87.79
2022-12-31T08:41:13.778Z,87.79
2022-12-31T08:42:13.793Z,88.09
2022-12-31T08:43:13.765Z,87.58
2022-12-31T08:44:13.795Z,87.88
2022-12-31T08:45:13.760Z,87.58
2022-12-31T08:46:13.805Z,87.38
2022-12-31T08:47:13.741Z,87.18
2022-12-31T08:48:13.741Z,86.87
2022-12-31T08:49:13.701Z,86.98
2022-12-31T08:50:13.763Z,87.18
2022-12-31T08:51:13.706Z,87.38
2022-12-31T08:52:13.675Z,87.38
2022-12-31T08:53:13.681Z,86.87
2022-12-31T08:54:13.637Z,87.48
2022-12-31T08:55:13.680Z,87.38
2022-12-31T08:56:13.650Z,87.08
2022-12-31T08:57:13.601Z,87.18
2022-12-31T08:58:13.642Z,87.08
2022-12-31T08:59:13.593Z,87.68
2022-12-31T09:00:13.597Z,87.88
2022-12-31T09:01:13.776Z,87.28
2022-12-31T09:02:13.661Z,86.98
2022-12-31T09:03:13.551Z,86.37
2022-12-31T09:04:13.628Z,86.57
2022-12-31T09:05:13.592Z,86.47
2022-12-31T09:06:13.611Z,86.27
2022-12-31T09:07:13.515Z,86.07
2022-12-31T09:08:13.532Z,85.96
2022-12-31T09:09:13.505Z,85.82
2022-12-31T09:10:13.480Z,85.52
2022-12-31T09:11:17.728Z,85.62
2022-12-31T09:12:13.483Z,85.72
2022-12-31T09:13:13.427Z,85.22
2022-12-31T09:14:13.500Z,85.52
2022-12-31T09:15:13.473Z,85.42
2022-12-31T09:16:13.577Z,85.62
2022-12-31T09:17:13.495Z,85.42
2022-12-31T09:18:13.392Z,85.11
2022-12-31T09:19:13.444Z,85.11
2022-12-31T09:20:13.384Z,85.11
2022-12-31T09:21:13.380Z,85.31
2022-12-31T09:22:13.362Z,84.91
2022-12-31T09:23:13.417Z,85.02
2022-12-31T09:24:13.367Z,85.11
2022-12-31T09:25:13.323Z,85.42
2022-12-31T09:26:13.390Z,84.81
2022-12-31T09:27:13.276Z,84.51
2022-12-31T09:28:13.325Z,84.51
2022-12-31T09:29:13.296Z,84.51
2022-12-31T09:30:13.270Z,84.41
2022-12-31T09:31:13.283Z,84.61
2022-12-31T09:32:13.271Z,84.61
2022-12-31T09:33:13.293Z,84.31
2022-12-31T09:34:13.233Z,84.41
2022-12-31T09:35:13.245Z,84.71
2022-12-31T09:36:13.223Z,84.41
2022-12-31T09:37:13.207Z,84.51
2022-12-31T09:38:13.199Z,84.71
2022-12-31T09:39:13.208Z,84.61
2022-12-31T09:40:13.198Z,84.41
2022-12-31T09:41:13.155Z,84.41
2022-12-31T09:42:13.163Z,84.71
2022-12-31T09:43:13.226Z,84.91
2022-12-31T09:44:13.136Z,85.02
2022-12-31T09:45:13.190Z,85.02
2022-12-31T09:46:13.131Z,85.22
2022-12-31T09:47:13.084Z,85.11
2022-12-31T09:48:13.166Z,85.31
2022-12-31T09:49:13.114Z,85.22
2022-12-31T09:50:13.062Z,85.02
2022-12-31T09:51:13.073Z,85.02
2022-12-31T09:52:13.179Z,84.91
2022-12-31T09:53:13.295Z,84.91
2022-12-31T09:54:13.011Z,85.11
2022-12-31T09:55:13.082Z,85.52
2022-12-31T09:56:13.001Z,85.93
2022-12-31T09:57:13.153Z,85.72
2022-12-31T09:58:12.983Z,85.82
2022-12-31T09:59:12.951Z,86.22
2022-12-31T10:00:12.994Z,86.43
2022-12-31T10:01:13.061Z,86.63
2022-12-31T10:02:13.267Z,87.28
2022-12-31T10:03:13.144Z,87.28
2022-12-31T10:04:12.925Z,87.79
2022-12-31T10:05:13.018Z,87.88
2022-12-31T10:06:12.951Z,87.79
2022-12-31T10:07:12.883Z,87.79
2022-12-31T10:08:12.861Z,87.58
2022-12-31T10:09:12.973Z,87.88
2022-12-31T10:10:12.967Z,87.08
2022-12-31T10:11:12.846Z,87.38
2022-12-31T10:12:12.890Z,87.58
2022-12-31T10:13:12.849Z,87.48
2022-12-31T10:14:12.845Z,87.58
2022-12-31T10:15:12.873Z,87.48
2022-12-31T10:16:13.017Z,87.18
2022-12-31T10:17:12.858Z,86.67
2022-12-31T10:18:12.775Z,86.47
2022-12-31T10:19:12.992Z,86.67
2022-12-31T10:20:12.743Z,86.57
2022-12-31T10:21:12.814Z,86.43
2022-12-31T10:22:12.736Z,86.22
2022-12-31T10:23:12.706Z,86.33
2022-12-31T10:24:12.703Z,86.33
2022-12-31T10:25:12.726Z,86.43
2022-12-31T10:26:12.684Z,86.57
2022-12-31T10:27:12.669Z,86.47
2022-12-31T10:28:12.686Z,86.67
2022-12-31T10:29:12.682Z,86.47
2022-12-31T10:30:12.628Z,86.77
2022-12-31T10:31:12.694Z,86.16
2022-12-31T10:32:12.622Z,86.47
2022-12-31T10:33:12.616Z,86.47
2022-12-31T10:34:12.612Z,86.37
2022-12-31T10:35:12.673Z,85.82
2022-12-31T10:36:12.590Z,86.02
2022-12-31T10:37:12.575Z,85.72
2022-12-31T10:38:12.578Z,85.62
2022-12-31T10:39:15.368Z,85.62
2022-12-31T10:40:12.519Z,85.31
2022-12-31T10:41:12.549Z,85.42
2022-12-31T10:42:12.564Z,85.11
2022-12-31T10:43:12.509Z,85.11
2022-12-31T10:44:12.512Z,85.11
2022-12-31T10:45:12.481Z,85.02
2022-12-31T10:46:16.216Z,84.87
2022-12-31T10:47:12.468Z,84.97
2022-12-31T10:48:12.455Z,84.97
2022-12-31T10:49:12.503Z,84.77
2022-12-31T10:50:12.436Z,84.47
2022-12-31T10:51:12.451Z,84.57
2022-12-31T10:52:12.498Z,83.86
2022-12-31T10:53:12.450Z,83.66
2022-12-31T10:54:12.407Z,83.76
2022-12-31T10:55:12.394Z,83.66
2022-12-31T10:56:12.392Z,83.86
2022-12-31T10:57:12.363Z,83.96
2022-12-31T10:58:12.382Z,84.06
2022-12-31T10:59:12.374Z,83.96
2022-12-31T11:00:12.326Z,83.96
2022-12-31T11:01:12.622Z,83.76
2022-12-31T11:02:12.495Z,83.56
2022-12-31T11:03:12.308Z,83.76
2022-12-31T11:04:12.275Z,84.17
2022-12-31T11:05:12.353Z,83.86
2022-12-31T11:06:12.270Z,84.06
2022-12-31T11:07:12.277Z,84.17
2022-12-31T11:08:12.232Z,83.86
2022-12-31T11:09:12.253Z,84.17
2022-12-31T11:10:12.231Z,84.47
2022-12-31T11:11:12.218Z,84.57
2022-12-31T11:12:12.247Z,84.17
2022-12-31T11:13:12.200Z,83.96
2022-12-31T11:14:12.374Z,84.17
2022-12-31T11:15:12.179Z,83.96
2022-12-31T11:16:12.257Z,83.76
2022-12-31T11:17:12.313Z,84.06
2022-12-31T11:18:12.142Z,83.76
2022-12-31T11:19:12.154Z,84.06
2022-12-31T11:20:12.194Z,83.12
2022-12-31T11:21:12.163Z,82.91
2022-12-31T11:22:12.094Z,83.12
2022-12-31T11:23:12.142Z,83.22
2022-12-31T11:24:12.193Z,82.91
2022-12-31T11:25:12.070Z,82.91
2022-12-31T11:26:12.123Z,82.51
2022-12-31T11:27:12.092Z,82.71
2022-12-31T11:28:12.084Z,83.01
2022-12-31T11:29:12.048Z,83.01
2022-12-31T11:30:12.163Z,83.22
2022-12-31T11:31:12.074Z,83.01
2022-12-31T11:32:12.011Z,82.61
2022-12-31T11:33:12.010Z,82.61
2022-12-31T11:34:12.450Z,82.51
2022-12-31T11:35:12.082Z,82.61
2022-12-31T11:36:12.275Z,82.41
2022-12-31T11:37:11.956Z,82.61
2022-12-31T11:38:11.946Z,82.81
2022-12-31T11:39:11.952Z,82.81
2022-12-31T11:40:11.941Z,82.61
2022-12-31T11:41:11.919Z,82.51
2022-12-31T11:42:11.916Z,83.22
2022-12-31T11:43:11.927Z,82.81
2022-12-31T11:44:11.853Z,82.61
2022-12-31T11:45:11.869Z,82.81
2022-12-31T11:46:12.009Z,82.71
2022-12-31T11:47:11.866Z,82.61
2022-12-31T11:49:11.987Z,82.21
2022-12-31T11:50:11.876Z,82.10
2022-12-31T11:51:11.846Z,82.01
2022-12-31T11:52:11.801Z,82.10
2022-12-31T11:53:11.817Z,82.01
2022-12-31T11:54:11.834Z,82.10
2022-12-31T11:55:11.775Z,82.10
2022-12-31T11:56:11.770Z,82.10
2022-12-31T11:57:11.973Z,81.90
2022-12-31T11:58:11.770Z,81.67
2022-12-31T11:59:18.640Z,81.26
2022-12-31T12:00:11.711Z,81.56
2022-12-31T12:01:11.803Z,81.16
2022-12-31T12:02:11.716Z,81.36
2022-12-31T12:03:11.790Z,81.46
2022-12-31T12:04:11.786Z,81.56
2022-12-31T12:05:11.808Z,81.46
2022-12-31T12:06:11.688Z,81.87
2022-12-31T12:07:11.730Z,82.07
2022-12-31T12:08:11.620Z,81.87
2022-12-31T12:09:11.716Z,81.70
2022-12-31T12:10:11.600Z,81.76
2022-12-31T12:11:11.642Z,81.67
2022-12-31T12:12:11.721Z,81.36
2022-12-31T12:13:11.585Z,81.36
2022-12-31T12:14:11.567Z,81.16
2022-12-31T12:15:11.586Z,81.36
2022-12-31T12:16:11.859Z,81.36
2022-12-31T12:17:11.555Z,81.16
2022-12-31T12:18:11.523Z,81.16
2022-12-31T12:19:11.584Z,81.36
2022-12-31T12:20:11.505Z,81.05
2022-12-31T12:21:11.514Z,81.16
2022-12-31T12:22:11.504Z,81.05
2022-12-31T12:23:11.507Z,81.16
2022-12-31T12:24:11.617Z,81.26
2022-12-31T12:25:11.470Z,80.96
2022-12-31T12:26:11.454Z,80.96
2022-12-31T12:27:11.479Z,81.26
2022-12-31T12:28:11.454Z,81.26
2022-12-31T12:29:11.465Z,81.16
2022-12-31T12:30:11.504Z,81.56
2022-12-31T12:31:11.425Z,81.67
2022-12-31T12:32:11.462Z,81.76
2022-12-31T12:33:11.384Z,81.50
2022-12-31T12:34:11.357Z,81.36
2022-12-31T12:35:11.380Z,81.46
2022-12-31T12:36:11.333Z,81.26
2022-12-31T12:37:11.366Z,81.46
2022-12-31T12:38:11.364Z,81.16
2022-12-31T12:39:11.331Z,81.36
2022-12-31T12:40:11.384Z,81.16
2022-12-31T12:41:11.346Z,81.16
2022-12-31T12:42:11.292Z,81.26
2022-12-31T12:43:11.277Z,81.46
2022-12-31T12:44:11.309Z,81.56
2022-12-31T12:45:11.269Z,81.46
2022-12-31T12:46:11.341Z,81.70
2022-12-31T12:47:11.279Z,81.40
2022-12-31T12:48:11.246Z,81.70
2022-12-31T12:49:11.222Z,81.80
2022-12-31T12:50:11.279Z,81.90
2022-12-31T12:51:11.230Z,82.01
2022-12-31T12:52:11.203Z,81.80
2022-12-31T12:53:11.254Z,81.90